»·PEaware :: N788AL KSMX-KBFL

N788AL :: KSMX-KBFL

FLIGHT INFORMATION

Flight Status: Arrived
Operator: Privately registered:
United States
More flights under this callsign
Pilot: Armen M. (22776)
Aircraft: CESSNA 172 SKYHAWK
(C172)
More flights by this aircraft type
Origin: KSMX Santa Maria Pub/Capt Hancock
United States
Destination: KBFL Meadows
United States
More flights between these airports :: More routes between these airports
Route: +
File this flight plan on PilotEdge
Remarks: CAT 2
Altitude:
(Current/Filed)
6,500ft
Speed:
(Current/Filed)
110kts
Departed: 06-Feb-19 05:20 PM
Arrived: 06-Feb-19 06:22 PM
Distance/Time
Traveled:
76nm/1:02
Distance/Time
To Go:
Arrived

Flight Plot

Page will automatically refresh every two minutes.


Map Options




Map Legend


Flown Route
Filed Route
Departure Airport
Arrival Airport
Navaid (VOR, NDB)
Fix

Horizontal Profiles

Position Reports

Time Latitude Longitude Heading Altitude Ground
Speed
06-Feb-19 17:01 34.898945 -120.448589 312 265ft 0kts
06-Feb-19 17:02 34.898945 -120.448589 312 265ft 0kts
06-Feb-19 17:03 34.898945 -120.448589 312 265ft 0kts
06-Feb-19 17:04 34.898945 -120.448589 312 265ft 0kts
06-Feb-19 17:05 34.898945 -120.448589 312 265ft 0kts
06-Feb-19 17:06 34.898945 -120.448589 312 265ft 0kts
06-Feb-19 17:07 34.898945 -120.448589 312 265ft 0kts
06-Feb-19 17:08 34.898945 -120.448589 312 265ft 0kts
06-Feb-19 17:09 34.898945 -120.448589 312 265ft 0kts
06-Feb-19 17:10 34.899145 -120.448860 307 265ft 10kts
06-Feb-19 17:11 34.897807 -120.449360 135 265ft 20kts
06-Feb-19 17:12 34.894545 -120.445461 134 265ft 15kts
06-Feb-19 17:13 34.893738 -120.444961 185 265ft 0kts
06-Feb-19 17:14 34.893738 -120.444961 185 265ft 0kts
06-Feb-19 17:15 34.893738 -120.444961 185 265ft 0kts
06-Feb-19 17:16 34.893738 -120.444961 185 265ft 0kts
06-Feb-19 17:17 34.893535 -120.445039 201 265ft 3kts
06-Feb-19 17:18 34.893380 -120.445101 197 265ft 0kts
06-Feb-19 17:19 34.896268 -120.450012 316 306ft 79kts
06-Feb-19 17:20 34.911250 -120.458953 32 960ft 97kts
06-Feb-19 17:21 34.924186 -120.443859 56 1701ft 91kts
06-Feb-19 17:22 34.930697 -120.424300 69 2378ft 92kts
06-Feb-19 17:23 34.936472 -120.404218 63 3098ft 85kts
06-Feb-19 17:24 34.944270 -120.383676 73 3749ft 88kts
06-Feb-19 17:25 34.952864 -120.362332 70 4404ft 91kts
06-Feb-19 17:26 34.960720 -120.340523 60 5080ft 88kts
06-Feb-19 17:27 34.973192 -120.321739 72 5668ft 90kts
06-Feb-19 17:28 34.978042 -120.298399 74 6244ft 91kts
06-Feb-19 17:29 34.984197 -120.275156 68 6806ft 91kts
06-Feb-19 17:30 34.991535 -120.252056 90 7320ft 92kts
06-Feb-19 17:31 34.993709 -120.226297 84 7618ft 106kts
06-Feb-19 17:32 34.999372 -120.198552 70 7590ft 107kts
06-Feb-19 17:33 35.005075 -120.169446 82 7545ft 109kts
06-Feb-19 17:34 35.005953 -120.139722 100 7528ft 109kts
06-Feb-19 17:35 35.001596 -120.107682 92 7516ft 109kts
06-Feb-19 17:37 35.008275 -120.071170 67 7485ft 109kts
06-Feb-19 17:38 35.011747 -120.033400 90 7469ft 109kts
06-Feb-19 17:39 35.015289 -120.002103 73 7464ft 108kts
06-Feb-19 17:40 35.024497 -119.971868 64 7447ft 109kts
06-Feb-19 17:41 35.038576 -119.943921 55 7485ft 108kts
06-Feb-19 17:42 35.051755 -119.917183 59 7500ft 108kts
06-Feb-19 17:43 35.065564 -119.890296 58 7417ft 111kts
06-Feb-19 17:44 35.078185 -119.863921 60 7392ft 111kts
06-Feb-19 17:45 35.090743 -119.837775 64 7490ft 106kts
06-Feb-19 17:46 35.101688 -119.811369 63 7490ft 109kts
06-Feb-19 17:47 35.113642 -119.785718 57 7430ft 108kts
06-Feb-19 17:48 35.128789 -119.762187 52 7362ft 108kts
06-Feb-19 17:49 35.142473 -119.737476 50 7379ft 107kts
06-Feb-19 17:50 35.158366 -119.715288 50 7428ft 108kts
06-Feb-19 17:51 35.172510 -119.691386 58 7484ft 108kts
06-Feb-19 17:52 35.185191 -119.666301 61 7446ft 103kts
06-Feb-19 17:53 35.197983 -119.641767 50 7317ft 109kts
06-Feb-19 17:54 35.213049 -119.620230 52 7335ft 107kts
06-Feb-19 17:55 35.224227 -119.594926 65 7370ft 110kts
06-Feb-19 17:56 35.234662 -119.568155 63 7458ft 107kts
06-Feb-19 17:56 35.242927 -119.545400 60 7491ft 107kts
06-Feb-19 17:57 35.253657 -119.517825 63 7428ft 108kts
06-Feb-19 17:59 35.268109 -119.486635 64 7370ft 108kts
06-Feb-19 17:59 35.272313 -119.461537 90 7325ft 108kts
06-Feb-19 18:00 35.274360 -119.431573 61 7224ft 111kts
06-Feb-19 18:01 35.287504 -119.406744 49 7288ft 107kts
06-Feb-19 18:02 35.303040 -119.383092 57 7325ft 108kts
06-Feb-19 18:03 35.315299 -119.356044 64 7369ft 108kts
06-Feb-19 18:04 35.326480 -119.329510 58 7415ft 108kts
06-Feb-19 18:05 35.341773 -119.304394 56 7455ft 108kts
06-Feb-19 18:06 35.354224 -119.278221 60 7400ft 110kts
06-Feb-19 18:07 35.365443 -119.250543 63 7097ft 113kts
06-Feb-19 18:08 35.373675 -119.221945 76 6674ft 111kts
06-Feb-19 18:09 35.382117 -119.195421 58 6222ft 114kts
06-Feb-19 18:10 35.392012 -119.169515 72 5660ft 116kts
06-Feb-19 18:11 35.399298 -119.145456 68 5153ft 122kts
06-Feb-19 18:12 35.407088 -119.118107 72 3834ft 138kts
06-Feb-19 18:13 35.415224 -119.091464 66 2314ft 138kts
06-Feb-19 18:14 35.411852 -119.068473 139 1380ft 109kts
06-Feb-19 18:15 35.400158 -119.058100 150 1266ft 80kts
06-Feb-19 18:16 35.396053 -119.046041 50 933ft 69kts
06-Feb-19 18:17 35.402763 -119.035451 51 1029ft 73kts
06-Feb-19 18:18 35.413570 -119.030343 325 916ft 77kts
06-Feb-19 18:19 35.421641 -119.041504 316 647ft 62kts
06-Feb-19 18:20 35.430273 -119.051872 315 544ft 61kts
06-Feb-19 18:21 35.435696 -119.058102 344 510ft 18kts
06-Feb-19 18:22 35.436328 -119.057678 86 510ft 0kts
06-Feb-19 18:23 35.436230 -119.056902 120 510ft 10kts
06-Feb-19 18:24 35.435379 -119.055851 135 510ft 26kts
06-Feb-19 18:25 35.432237 -119.052034 134 510ft 21kts
06-Feb-19 18:26 35.429046 -119.048148 137 510ft 19kts
06-Feb-19 18:27 35.427948 -119.045595 118 510ft 7kts
06-Feb-19 18:28 35.426695 -119.044052 109 510ft 7kts
06-Feb-19 18:29 35.426867 -119.043328 312 510ft 0kts
06-Feb-19 18:30 35.426867 -119.043328 312 510ft 0kts
06-Feb-19 18:31 35.426867 -119.043328 312 510ft 0kts
06-Feb-19 18:32 35.426867 -119.043328 312 510ft 0kts
06-Feb-19 18:33 35.426867 -119.043328 312 510ft 0kts
06-Feb-19 18:34 35.426867 -119.043328 312 510ft 0kts

Navigation Log

Ident Type
Flight plan parsing failed, navigation log unavailable